Capitol Logistics 984

Operating for DHL



LGAV
Eleftherios Venizelos International Airport
Athens, GR
LCLK
Larnaca International Airport
Larnaca, CY

Activity Log

Date Flight Route Aircraft Duration
02/21/2022 CPX984 KEA2F KEA UL995 RDS UM601 EVENO M601 BONEK BONE1R A30F 1h 58m
01/03/2022 CPX984 KEA2T KEA UL995 RDS UM601 EVENO M601 BONEK BONE1A A30F 1h 40m

Route Details

Aircraft Information
Group: European Fleet
Types: A30F,A31F,B738
Route Data
Demand: M
Distance: 503nm
Duration: 1h 50m
Recm'd Route: KEA2T KEA UL995 RDS UM601 EVENO M601 BONEK BONE1A
Origin Wx: LGAV 272150Z 25002KT CAVOK 22/15 Q1014 NOSIG
Dest. Wx: LCLK 272200Z 30007KT CAVOK 29/09 Q1008 NOSIG
Notes:

Financial History
Total Freight: 133,539lbs
Average Load: 66,770lbs/flt
Fuel Used: 45,237lbs
Avg. Fuel Used: 22,619lbs/flt
Fuel Expense: $14,506
Avg. Fuel Expense: $7,253
Avg. Fuel Cost: $0.32/lbs
Total Gross Income: $490,355
Pilot Pay: $518
Total Expenses: $58,322
Total Revenue: $416,753
Average Revenue: $245,177.61